Time;durP1;ratioP1;P1;durP2;ratioP2;P2;SDS_P1;SDS_P2;PMS_P1;PMS_P2;Temp;Humidity;BMP_temperature;BMP_pressure;BME280_temperature;BME280_humidity;BME280_pressure;Samples;Min_cycle;Max_cycle;Signal;HPM_P1;HPM_P2
2022/05/24 00:01:28;;;;;;;;;3.00;2.00;;;;;14.92;70.20;99794.94;5083371;27;45026;-80
2022/05/24 00:03:53;;;;;;;;;3.00;3.00;;;;;14.95;70.22;99807.81;5083122;27;45185;-77
2022/05/24 00:06:19;;;;;;;;;3.50;3.50;;;;;14.85;70.40;99803.63;5083475;27;45377;-81
2022/05/24 00:08:45;;;;;;;;;2.75;2.00;;;;;14.87;70.40;99805.13;5082977;27;45541;-82
2022/05/24 00:11:10;;;;;;;;;3.50;3.00;;;;;14.85;70.73;99814.19;5083095;27;45134;-81
2022/05/24 00:13:36;;;;;;;;;3.00;3.00;;;;;14.79;70.49;99818.25;5083074;27;45129;-78
2022/05/24 00:19:23;;;;;;;;;3.50;3.00;;;;;14.72;69.91;99843.63;5082912;27;45103;-79
2022/05/24 00:21:49;;;;;;;;;2.00;1.00;;;;;14.67;70.22;99837.97;5083426;27;45215;-80
2022/05/24 00:24:14;;;;;;;;;3.00;2.00;;;;;14.70;70.05;99846.41;5083221;27;45156;-78
2022/05/24 00:26:40;;;;;;;;;2.25;2.00;;;;;14.65;70.07;99846.03;5082371;27;45778;-77
2022/05/24 00:29:06;;;;;;;;;2.00;2.00;;;;;14.65;69.92;99839.94;5082597;27;45229;-80
2022/05/24 00:34:53;;;;;;;;;3.75;2.50;;;;;14.53;69.88;99826.16;5083193;27;44946;-77
2022/05/24 00:37:22;;;;;;;;;3.00;2.25;;;;;14.55;69.82;99837.41;5082572;27;45563;-82
2022/05/24 00:39:48;;;;;;;;;3.00;2.50;;;;;14.54;69.62;99824.34;5082265;27;45482;-77
2022/05/24 00:42:25;;;;;;;;;2.50;2.00;;;;;14.54;69.50;99819.09;5083357;27;45475;-81
2022/05/24 00:45:10;;;;;;;;;1.25;1.25;;;;;14.50;69.51;99805.41;5083318;27;45011;-79
2022/05/24 00:47:40;;;;;;;;;2.00;1.00;;;;;14.52;69.41;99823.69;5083172;27;45862;-80
2022/05/24 00:50:20;;;;;;;;;1.00;1.00;;;;;14.49;69.80;99822.19;5083261;27;45526;-84
2022/05/24 00:53:18;;;;;;;;;1.00;1.00;;;;;14.47;69.30;99820.66;5082444;27;45068;-77
2022/05/24 00:55:56;;;;;;;;;2.50;2.00;;;;;14.41;69.27;99813.41;5086443;27;45150;-76
2022/05/24 00:58:31;;;;;;;;;1.75;1.50;;;;;14.41;69.62;99821.31;5086110;27;45589;-77
2022/05/24 01:01:01;;;;;;;;;3.00;2.00;;;;;14.39;69.63;99807.44;5085971;27;45527;-77
2022/05/24 01:03:26;;;;;;;;;3.00;2.00;;;;;14.39;69.71;99812.72;5086109;27;45143;-77
2022/05/24 01:05:52;;;;;;;;;2.00;1.00;;;;;14.36;69.52;99815.63;5086618;27;45134;-77
2022/05/24 01:08:18;;;;;;;;;2.00;1.75;;;;;14.38;69.18;99819.78;5085832;27;45718;-82
2022/05/24 01:10:50;;;;;;;;;2.00;1.00;;;;;14.37;68.99;99833.13;5085941;27;45508;-76
2022/05/24 01:13:24;;;;;;;;;1.00;1.00;;;;;14.31;69.54;99818.69;5068202;27;45331;-80
2022/05/24 01:15:51;;;;;;;;;2.50;1.00;;;;;14.32;69.01;99824.81;5085785;27;45169;-76
2022/05/24 01:18:21;;;;;;;;;2.00;2.00;;;;;14.33;69.05;99829.94;5067994;27;47631;-83
2022/05/24 01:20:53;;;;;;;;;1.00;1.00;;;;;14.35;68.96;99830.63;5085635;27;45159;-78
2022/05/24 01:23:41;;;;;;;;;1.50;1.50;;;;;14.35;69.06;99832.44;5068266;27;45583;-77
2022/05/24 01:26:18;;;;;;;;;1.25;1.00;;;;;14.33;69.15;99835.19;5085944;27;45039;-82
2022/05/24 01:28:54;;;;;;;;;1.50;1.00;;;;;14.33;69.09;99837.00;5085461;27;45465;-77
2022/05/24 01:31:21;;;;;;;;;1.00;1.00;;;;;14.33;68.99;99843.09;5085648;27;45258;-76
2022/05/24 01:36:37;;;;;;;;;1.75;1.25;;;;;14.27;68.51;99834.00;5086151;27;45133;-78
2022/05/24 01:39:09;;;;;;;;;0.25;0.00;;;;;14.19;68.62;99833.13;5085348;27;45646;-80
2022/05/24 01:41:48;;;;;;;;;1.50;1.00;;;;;14.27;68.88;99841.06;5085417;27;45251;-81
2022/05/24 01:44:22;;;;;;;;;2.00;1.00;;;;;14.24;68.56;99836.94;5085365;27;45286;-78
2022/05/24 01:46:47;;;;;;;;;1.00;1.00;;;;;14.22;68.59;99830.16;5068325;27;45293;-82
2022/05/24 01:49:18;;;;;;;;;2.00;1.25;;;;;14.25;68.45;99845.69;5085126;27;45507;-79
2022/05/24 01:52:12;;;;;;;;;1.00;0.00;;;;;14.22;68.13;99848.59;5085008;27;45496;-77
2022/05/24 01:54:45;;;;;;;;;1.25;1.00;;;;;14.17;68.68;99851.69;5066772;27;45072;-78
2022/05/24 01:57:17;;;;;;;;;2.00;1.00;;;;;14.13;68.62;99852.97;5085139;27;45049;-79
2022/05/24 01:59:47;;;;;;;;;1.00;1.00;;;;;14.04;68.65;99848.59;5085112;27;45667;-76
2022/05/24 02:02:12;;;;;;;;;2.75;1.00;;;;;14.03;68.35;99854.03;5084908;27;45286;-77
2022/05/24 02:04:38;;;;;;;;;1.00;1.00;;;;;13.99;68.64;99856.13;5084749;27;44991;-79
2022/05/24 02:07:12;;;;;;;;;1.25;1.00;;;;;14.02;68.45;99860.28;5084938;27;45129;-79
2022/05/24 02:09:40;;;;;;;;;2.00;1.00;;;;;13.96;68.47;99855.59;5084939;27;45752;-79
2022/05/24 02:12:11;;;;;;;;;1.00;1.00;;;;;13.90;68.49;99845.66;5085567;27;45415;-80
2022/05/24 02:14:42;;;;;;;;;0.50;0.50;;;;;13.89;68.53;99850.09;5084986;27;45133;-82
2022/05/24 02:17:15;;;;;;;;;1.00;1.00;;;;;13.92;68.94;99852.44;5085175;27;45031;-83
2022/05/24 02:19:44;;;;;;;;;1.00;0.50;;;;;13.88;68.62;99854.53;5084770;27;45736;-81
2022/05/24 02:22:16;;;;;;;;;2.25;1.00;;;;;13.80;68.71;99858.88;5085234;27;45292;-80
2022/05/24 02:24:41;;;;;;;;;0.00;0.00;;;;;13.75;68.67;99846.19;5085177;27;45149;-78
2022/05/24 02:27:06;;;;;;;;;1.50;1.00;;;;;13.76;68.34;99847.00;5084989;27;45224;-80
2022/05/24 02:29:32;;;;;;;;;1.75;1.00;;;;;13.71;68.47;99831.63;5084375;27;45735;-79
2022/05/24 02:31:58;;;;;;;;;2.00;1.00;;;;;13.75;69.12;99847.97;5084806;27;45181;-79
2022/05/24 02:34:23;;;;;;;;;0.75;0.00;;;;;13.74;68.51;99854.22;5084863;27;45103;-81
2022/05/24 02:36:49;;;;;;;;;1.00;1.00;;;;;13.77;68.79;99859.16;5084521;27;45013;-80
2022/05/24 02:39:14;;;;;;;;;0.00;0.00;;;;;13.77;68.83;99867.06;5084407;27;45594;-82
2022/05/24 02:41:40;;;;;;;;;0.75;0.75;;;;;13.77;68.55;99869.69;5084586;27;45329;-77
2022/05/24 02:44:12;;;;;;;;;0.75;0.00;;;;;13.75;68.74;99855.88;5085199;27;45026;-81
2022/05/24 02:46:41;;;;;;;;;0.00;0.00;;;;;13.70;68.82;99851.06;5067734;27;45157;-79
2022/05/24 02:49:10;;;;;;;;;1.00;1.00;;;;;13.69;68.77;99851.19;5084550;27;45481;-83
2022/05/24 02:51:37;;;;;;;;;0.25;0.25;;;;;13.74;69.03;99864.75;5084745;27;45552;-78
2022/05/24 02:54:04;;;;;;;;;1.00;1.00;;;;;13.78;68.59;99866.94;5066954;27;45198;-76
2022/05/24 02:56:29;;;;;;;;;2.25;1.00;;;;;13.76;68.75;99874.16;5084256;27;45164;-76
2022/05/24 02:58:55;;;;;;;;;1.00;1.00;;;;;13.72;68.87;99877.22;5084311;27;45384;-76
2022/05/24 03:01:24;;;;;;;;;1.50;1.00;;;;;13.72;69.03;99878.03;5084172;27;45357;-78
2022/05/24 03:03:51;;;;;;;;;2.50;1.25;;;;;13.72;68.76;99882.47;5084264;27;45185;-76
2022/05/24 03:06:17;;;;;;;;;1.75;0.75;;;;;13.71;68.83;99872.94;5083930;27;44979;-82
2022/05/24 03:11:28;;;;;;;;;1.00;0.50;;;;;13.74;68.81;99894.53;5084376;27;45068;-77
2022/05/24 03:16:38;;;;;;;;;1.00;0.50;;;;;13.69;68.89;99886.25;5083098;27;44919;-77
2022/05/24 03:19:05;;;;;;;;;1.00;1.00;;;;;13.73;68.59;99900.75;5066056;27;47307;-77
2022/05/24 03:21:30;;;;;;;;;0.25;0.25;;;;;13.72;68.61;99899.09;5084364;27;45364;-78
2022/05/24 03:23:56;;;;;;;;;1.25;1.00;;;;;13.66;68.66;99886.53;5083759;27;44973;-78
2022/05/24 03:26:21;;;;;;;;;0.00;0.00;;;;;13.66;68.65;99891.78;5084327;27;45147;-80
2022/05/24 03:28:49;;;;;;;;;1.00;0.00;;;;;13.59;68.94;99903.91;5083767;27;45893;-77
2022/05/24 03:31:16;;;;;;;;;1.50;1.00;;;;;13.58;68.71;99896.13;5065761;27;47166;-83
2022/05/24 03:33:42;;;;;;;;;0.25;0.00;;;;;13.62;68.79;99918.56;5084176;27;44970;-76
2022/05/24 03:36:07;;;;;;;;;2.00;1.00;;;;;13.63;68.88;99926.31;5059542;28;45506;-82
2022/05/24 03:38:33;;;;;;;;;1.00;1.00;;;;;13.48;68.66;99896.19;5055263;28;45603;-83
2022/05/24 03:40:58;;;;;;;;;0.25;0.25;;;;;13.57;68.86;99910.25;5055268;28;46081;-84
2022/05/24 03:43:24;;;;;;;;;1.00;1.00;;;;;13.60;68.92;99908.19;5036603;28;46097;-83
2022/05/24 03:45:58;;;;;;;;;2.25;1.00;;;;;13.58;69.05;99902.22;5055180;28;45518;-82
2022/05/24 03:51:46;;;;;;;;;0.50;0.50;;;;;13.58;68.85;99932.97;5054674;28;45714;-82
2022/05/24 03:54:12;;;;;;;;;0.00;0.00;;;;;13.54;68.73;99942.16;5055158;28;45583;-82
2022/05/24 03:56:39;;;;;;;;;0.00;0.00;;;;;13.51;68.85;99934.53;5055320;28;45676;-83
2022/05/24 03:59:05;;;;;;;;;0.00;0.00;;;;;13.43;68.97;99936.09;5036771;28;46751;-84
2022/05/24 04:01:30;;;;;;;;;1.00;1.00;;;;;13.47;68.63;99951.59;5054731;28;46247;-81
2022/05/24 04:03:56;;;;;;;;;0.50;0.00;;;;;13.39;69.01;99939.97;5054838;28;45567;-81
2022/05/24 04:06:21;;;;;;;;;1.00;1.00;;;;;13.41;69.07;99947.72;5054994;28;45521;-82
2022/05/24 04:08:47;;;;;;;;;0.75;0.00;;;;;13.41;68.96;99950.34;5054662;28;45600;-83
2022/05/24 04:11:12;;;;;;;;;1.00;1.00;;;;;13.41;68.72;99948.56;5054785;28;46489;-80
2022/05/24 04:13:41;;;;;;;;;0.00;0.00;;;;;13.46;69.04;99956.00;5054885;28;45624;-81
2022/05/24 04:16:07;;;;;;;;;1.50;1.00;;;;;13.47;68.91;99959.47;5055051;28;45475;-83
2022/05/24 04:21:55;;;;;;;;;2.00;1.00;;;;;13.45;68.81;99956.97;5054410;28;46186;-81
2022/05/24 04:24:20;;;;;;;;;0.00;0.00;;;;;13.43;68.95;99954.50;5054450;28;45519;-80
2022/05/24 04:26:47;;;;;;;;;0.00;0.00;;;;;13.42;68.86;99952.03;5054977;28;45755;-82
2022/05/24 04:29:13;;;;;;;;;0.00;0.00;;;;;13.42;68.66;99959.91;5054193;28;45764;-82
2022/05/24 04:31:39;;;;;;;;;1.00;0.00;;;;;13.39;68.79;99963.66;5054466;28;45548;-82
2022/05/24 04:37:27;;;;;;;;;2.00;0.00;;;;;13.40;68.56;99969.75;5054355;28;45697;-77
2022/05/24 04:39:52;;;;;;;;;0.50;0.50;;;;;13.37;68.33;99983.19;5054152;28;45644;-83
2022/05/24 04:42:23;;;;;;;;;0.25;0.25;;;;;13.27;68.79;99972.69;5054290;28;46609;-80
2022/05/24 04:44:54;;;;;;;;;0.00;0.00;;;;;13.31;68.74;99992.47;5054355;28;45608;-80
2022/05/24 04:47:22;;;;;;;;;0.00;0.00;;;;;13.29;68.69;99994.41;5054572;28;45648;-79
2022/05/24 04:49:53;;;;;;;;;0.75;0.00;;;;;13.27;68.88;100001.63;5054327;28;45550;-82
2022/05/24 04:52:20;;;;;;;;;0.00;0.00;;;;;13.21;68.68;100004.81;5054642;28;46344;-81
2022/05/24 04:54:46;;;;;;;;;0.00;0.00;;;;;13.17;68.88;99986.84;5054506;28;45615;-80
2022/05/24 04:57:13;;;;;;;;;0.00;0.00;;;;;13.25;69.01;99998.31;5054075;28;45808;-81
2022/05/24 04:59:39;;;;;;;;;0.00;0.00;;;;;13.24;68.23;99995.81;5053916;28;45687;-76
2022/05/24 05:02:06;;;;;;;;;0.25;0.00;;;;;13.25;68.22;100000.09;5054300;28;46426;-82
2022/05/24 05:04:32;;;;;;;;;1.00;0.00;;;;;13.29;68.62;100017.25;5054333;28;45772;-84
2022/05/24 05:07:01;;;;;;;;;0.00;0.00;;;;;13.18;68.74;100005.09;5054350;28;45688;-81
2022/05/24 05:09:34;;;;;;;;;0.00;0.00;;;;;13.23;68.26;100013.38;5053836;28;46494;-83
2022/05/24 05:12:00;;;;;;;;;0.00;0.00;;;;;13.24;68.14;100014.22;5035911;28;47785;-81
2022/05/24 05:14:26;;;;;;;;;1.50;1.25;;;;;13.27;68.34;100021.84;5053774;28;45578;-81
2022/05/24 05:16:58;;;;;;;;;0.50;0.00;;;;;13.23;68.43;100020.44;5054088;28;45724;-80
2022/05/24 05:22:45;;;;;;;;;0.00;0.00;;;;;13.26;68.18;100025.44;5053577;28;45787;-83
2022/05/24 05:25:10;;;;;;;;;0.00;0.00;;;;;13.30;68.17;100042.59;5035319;28;45543;-84
2022/05/24 05:27:36;;;;;;;;;1.00;0.25;;;;;13.31;68.12;100039.84;5053840;28;45509;-82
2022/05/24 05:32:50;;;;;;;;;0.00;0.00;;;;;13.28;68.24;100045.38;5053339;28;45941;-81
2022/05/24 05:35:16;;;;;;;;;0.50;0.00;;;;;13.22;68.59;100034.59;5053873;28;45608;-79
2022/05/24 05:37:42;;;;;;;;;0.00;0.00;;;;;13.29;68.40;100047.03;5053616;28;45827;-79
2022/05/24 05:40:08;;;;;;;;;0.75;0.00;;;;;13.29;68.16;100056.72;5054794;28;45687;-80
2022/05/24 05:42:34;;;;;;;;;0.00;0.00;;;;;13.27;68.57;100063.94;5057120;28;45616;-83
2022/05/24 05:45:01;;;;;;;;;1.00;1.00;;;;;13.25;68.22;100064.06;5057207;28;45736;-82
2022/05/24 05:47:26;;;;;;;;;0.00;0.00;;;;;13.28;68.13;100074.31;5057116;28;45525;-81
2022/05/24 05:49:52;;;;;;;;;1.25;1.00;;;;;13.27;68.44;100066.56;5056701;28;45545;-80
2022/05/24 05:52:18;;;;;;;;;1.00;1.00;;;;;13.24;68.31;100051.03;5056812;28;45627;-82
2022/05/24 05:54:43;;;;;;;;;0.00;0.00;;;;;13.29;68.49;100061.97;5057280;28;45632;-83
2022/05/24 05:57:11;;;;;;;;;1.00;1.00;;;;;13.37;68.22;100077.91;5056993;28;45724;-82
2022/05/24 05:59:50;;;;;;;;;1.00;1.00;;;;;13.25;68.19;100061.44;5037947;28;47747;-80
2022/05/24 06:02:16;;;;;;;;;1.00;1.00;;;;;13.30;68.35;100066.28;5056798;28;45515;-81
2022/05/24 06:08:03;;;;;;;;;0.75;0.75;;;;;13.39;67.83;100076.78;5056459;28;45667;-82
2022/05/24 06:10:29;;;;;;;;;0.00;0.00;;;;;13.41;67.91;100081.91;5038163;28;46823;-80
2022/05/24 06:12:57;;;;;;;;;1.00;0.00;;;;;13.38;67.60;100083.03;5056332;28;46221;-82
2022/05/24 06:15:25;;;;;;;;;0.00;0.00;;;;;13.45;67.56;100088.56;5056616;28;45754;-77
2022/05/24 06:17:52;;;;;;;;;1.50;0.00;;;;;13.48;67.80;100109.34;5056625;28;45808;-81
2022/05/24 06:20:19;;;;;;;;;1.00;0.00;;;;;13.51;67.20;100105.59;5038303;28;48737;-81
2022/05/24 06:22:45;;;;;;;;;0.00;0.00;;;;;13.48;67.66;100098.00;5056355;28;47587;-81
2022/05/24 06:25:11;;;;;;;;;2.25;1.00;;;;;13.48;67.43;100100.63;5056935;28;45471;-80
2022/05/24 06:27:36;;;;;;;;;0.00;0.00;;;;;13.50;67.31;100111.81;5039240;28;45512;-83
2022/05/24 06:30:03;;;;;;;;;0.50;0.00;;;;;13.54;67.20;100121.13;5057006;28;45453;-80
2022/05/24 06:32:28;;;;;;;;;0.00;0.00;;;;;13.41;67.04;100095.91;5055868;28;47597;-81
2022/05/24 06:38:16;;;;;;;;;0.75;0.50;;;;;13.57;67.32;100118.19;5055831;28;45637;-81
2022/05/24 06:40:42;;;;;;;;;1.00;0.00;;;;;13.63;67.18;100118.47;5056382;28;45646;-81
2022/05/24 06:43:07;;;;;;;;;1.50;0.75;;;;;13.72;66.91;100129.94;5056337;28;46252;-81
2022/05/24 06:45:34;;;;;;;;;1.25;1.00;;;;;13.77;66.97;100117.19;5056383;28;45752;-82
2022/05/24 06:47:59;;;;;;;;;0.00;0.00;;;;;13.76;66.65;100126.91;5056163;28;45669;-81
2022/05/24 06:50:25;;;;;;;;;0.75;0.75;;;;;13.84;66.21;100134.09;5055943;28;46492;-82
2022/05/24 06:52:55;;;;;;;;;1.00;1.00;;;;;13.80;65.75;100124.81;5056081;28;45821;-82
2022/05/24 06:55:21;;;;;;;;;1.00;0.00;;;;;13.85;66.12;100135.75;5056593;28;45747;-83
2022/05/24 06:57:47;;;;;;;;;1.00;1.00;;;;;13.84;66.31;100131.47;5056177;28;45522;-83
2022/05/24 07:03:16;;;;;;;;;0.00;0.00;;;;;13.92;65.79;100133.41;5058689;28;45966;-83
2022/05/24 07:05:43;;;;;;;;;0.00;0.00;;;;;13.96;65.23;100140.88;5056369;28;45690;-80
2022/05/24 07:08:10;;;;;;;;;0.00;0.00;;;;;14.02;65.45;100145.56;5055725;28;45637;-80
2022/05/24 07:10:37;;;;;;;;;1.00;0.00;;;;;14.01;65.11;100143.91;5055926;28;46589;-80
2022/05/24 07:13:05;;;;;;;;;1.00;0.00;;;;;14.08;65.28;100162.59;5056063;28;46010;-82
2022/05/24 07:15:31;;;;;;;;;0.75;0.00;;;;;14.06;65.04;100146.94;5055763;28;45683;-79
2022/05/24 07:17:57;;;;;;;;;1.00;0.00;;;;;14.18;64.79;100163.41;5055656;28;45554;-79
2022/05/24 07:20:25;;;;;;;;;1.75;1.00;;;;;14.22;64.53;100159.50;5044890;28;48683;-79
2022/05/24 07:22:51;;;;;;;;;0.00;0.00;;;;;14.22;64.61;100152.44;5064183;28;46071;-82
2022/05/24 07:25:17;;;;;;;;;0.75;0.75;;;;;14.36;64.39;100160.88;5042508;28;45614;-78
2022/05/24 07:27:42;;;;;;;;;1.00;0.00;;;;;14.38;64.11;100165.03;5057056;28;45799;-79
2022/05/24 07:30:08;;;;;;;;;2.00;0.50;;;;;14.43;63.67;100157.53;5055100;28;46613;-81
2022/05/24 07:32:37;;;;;;;;;0.00;0.00;;;;;14.48;63.53;100171.09;5055172;28;46136;-79
2022/05/24 07:38:24;;;;;;;;;1.00;1.00;;;;;14.51;63.17;100141.81;5054571;28;45725;-80
2022/05/24 07:46:17;;;;;;;;;1.00;1.00;;;;;14.78;62.64;100153.34;5054685;28;45667;-79
2022/05/24 07:48:43;;;;;;;;;1.00;0.00;;;;;14.62;61.87;100131.09;5054406;28;45493;-81
2022/05/24 07:51:09;;;;;;;;;0.00;0.00;;;;;14.78;61.88;100159.47;5054855;28;45581;-81
2022/05/24 07:53:36;;;;;;;;;0.75;0.00;;;;;14.81;61.76;100159.16;5055148;28;46546;-81
2022/05/24 07:56:02;;;;;;;;;0.00;0.00;;;;;14.94;61.48;100164.91;5054928;28;45508;-82
2022/05/24 07:58:28;;;;;;;;;0.75;0.00;;;;;14.91;60.93;100157.28;5054819;28;45458;-81
2022/05/24 08:00:58;;;;;;;;;2.00;1.00;;;;;15.04;61.02;100172.78;5054466;28;45637;-79
2022/05/24 08:03:24;;;;;;;;;0.50;0.50;;;;;15.09;60.96;100179.25;5035679;28;48248;-81
2022/05/24 08:05:50;;;;;;;;;0.25;0.25;;;;;15.13;60.29;100185.06;5054837;28;45898;-79
2022/05/24 08:08:17;;;;;;;;;0.75;0.00;;;;;15.19;59.96;100176.56;5054851;28;45467;-80
2022/05/24 08:10:43;;;;;;;;;1.00;0.50;;;;;15.16;60.00;100158.41;5054600;28;45763;-81
2022/05/24 08:13:13;;;;;;;;;1.00;1.00;;;;;15.28;59.83;100169.53;5054902;28;46003;-81
2022/05/24 08:15:39;;;;;;;;;0.00;0.00;;;;;15.39;60.11;100175.44;5055318;28;45663;-83
2022/05/24 08:18:05;;;;;;;;;0.50;0.50;;;;;15.50;59.65;100177.03;5055416;28;45606;-82
2022/05/24 08:23:53;;;;;;;;;1.00;0.75;;;;;15.65;59.57;100175.56;5054778;28;45621;-81
2022/05/24 08:26:19;;;;;;;;;1.00;1.00;;;;;15.70;58.65;100165.38;5054337;28;45720;-83
2022/05/24 08:28:47;;;;;;;;;0.00;0.00;;;;;15.77;58.35;100170.84;5054682;28;45595;-83
2022/05/24 08:31:14;;;;;;;;;2.00;1.00;;;;;15.77;57.65;100160.28;5036441;28;46509;-82
2022/05/24 08:33:42;;;;;;;;;0.00;0.00;;;;;15.76;57.88;100169.22;5055127;28;45914;-81
2022/05/24 08:36:09;;;;;;;;;0.00;0.00;;;;;15.79;57.36;100172.38;5056178;28;45665;-82
2022/05/24 08:38:36;;;;;;;;;0.75;0.75;;;;;15.80;57.40;100178.47;5055556;28;45540;-82
2022/05/24 08:41:04;;;;;;;;;0.50;0.00;;;;;15.79;57.23;100177.66;5055519;28;45581;-82
2022/05/24 08:43:48;;;;;;;;;1.00;0.00;;;;;15.79;57.13;100179.47;5055223;28;46035;-81
2022/05/24 08:49:13;;;;;;;;;0.25;0.00;;;;;15.86;56.75;100172.59;5054976;28;45516;-83
2022/05/24 08:52:01;;;;;;;;;0.00;0.00;;;;;15.90;56.81;100168.66;5054957;28;45906;-82
2022/05/24 08:54:43;;;;;;;;;1.00;1.00;;;;;15.93;56.82;100171.81;5055270;28;45685;-82
2022/05/24 08:57:17;;;;;;;;;1.00;1.00;;;;;15.83;55.64;100168.44;5054775;28;45663;-82
2022/05/24 08:59:53;;;;;;;;;0.00;0.00;;;;;15.93;55.33;100185.00;5054195;28;45697;-81
2022/05/24 09:02:20;;;;;;;;;2.00;0.00;;;;;15.93;55.97;100177.09;5054203;28;46798;-82
2022/05/24 09:04:45;;;;;;;;;1.00;1.00;;;;;15.94;56.38;100170.00;5053924;28;46221;-81
2022/05/24 09:07:31;;;;;;;;;2.00;1.00;;;;;16.06;55.73;100179.34;5053604;28;45495;-82
2022/05/24 09:10:19;;;;;;;;;1.00;1.00;;;;;16.13;55.66;100187.47;5054097;28;45494;-81
2022/05/24 09:13:03;;;;;;;;;1.00;1.00;;;;;16.14;55.42;100165.34;5053609;28;45724;-81
2022/05/24 09:15:47;;;;;;;;;0.25;0.00;;;;;16.23;54.91;100191.69;5055341;28;45631;-82
2022/05/24 09:18:34;;;;;;;;;1.00;0.25;;;;;16.31;54.82;100182.94;5057059;28;45477;-81
2022/05/24 09:21:00;;;;;;;;;2.00;0.50;;;;;16.37;54.95;100179.69;5057337;28;45690;-82
2022/05/24 09:24:05;;;;;;;;;1.00;1.00;;;;;16.43;54.63;100184.34;5057239;28;46563;-81
2022/05/24 09:26:34;;;;;;;;;1.00;0.00;;;;;16.45;53.68;100190.31;5036811;28;46025;-81
2022/05/24 09:29:11;;;;;;;;;1.00;1.00;;;;;16.41;53.16;100186.31;5037116;28;45717;-81
2022/05/24 09:31:43;;;;;;;;;0.00;0.00;;;;;16.42;53.31;100192.44;5036952;28;45452;-81
2022/05/24 09:37:30;;;;;;;;;0.00;0.00;;;;;16.47;53.07;100182.22;5036413;28;46220;-81
2022/05/24 09:39:59;;;;;;;;;0.00;0.00;;;;;16.57;52.94;100196.97;5036868;28;45598;-81
2022/05/24 09:42:28;;;;;;;;;0.00;0.00;;;;;16.64;52.31;100198.06;5036713;28;45547;-81
2022/05/24 09:44:58;;;;;;;;;2.00;1.00;;;;;16.64;52.66;100182.19;5036924;28;45513;-81
2022/05/24 09:47:33;;;;;;;;;1.00;0.00;;;;;16.75;52.32;100192.47;5036806;28;45494;-79
2022/05/24 09:53:30;;;;;;;;;1.00;1.00;;;;;16.89;52.13;100201.66;5036967;28;45707;-80
2022/05/24 09:55:59;;;;;;;;;0.00;0.00;;;;;16.90;51.55;100199.81;5036670;28;46813;-81
2022/05/24 09:58:49;;;;;;;;;1.00;0.00;;;;;16.88;51.95;100196.50;5036449;28;45535;-80
2022/05/24 10:01:35;;;;;;;;;0.25;0.00;;;;;16.92;50.82;100203.97;5036840;28;45701;-81
2022/05/24 10:04:22;;;;;;;;;0.25;0.25;;;;;16.90;51.28;100219.16;5036835;28;45740;-82
2022/05/24 10:07:08;;;;;;;;;1.00;0.00;;;;;16.88;50.48;100215.03;5036631;28;46889;-82
2022/05/24 10:10:11;;;;;;;;;1.00;0.25;;;;;16.87;51.00;100213.38;5036801;28;45803;-81
2022/05/24 10:12:55;;;;;;;;;1.00;0.00;;;;;16.89;51.17;100203.47;5036583;28;45595;-82
2022/05/24 10:15:26;;;;;;;;;0.75;0.75;;;;;16.90;51.21;100208.56;5036586;28;45745;-81
2022/05/24 10:18:17;;;;;;;;;1.00;0.00;;;;;16.94;51.13;100217.03;5036063;28;45676;-83
2022/05/24 10:20:47;;;;;;;;;0.25;0.25;;;;;16.91;50.57;100212.06;5036470;28;46110;-82
2022/05/24 10:23:27;;;;;;;;;0.00;0.00;;;;;16.85;50.26;100224.09;5035979;28;45624;-83
2022/05/24 10:26:08;;;;;;;;;0.00;0.00;;;;;16.76;50.05;100206.53;5052032;28;45597;-82
2022/05/24 10:29:06;;;;;;;;;1.75;1.00;;;;;16.79;50.18;100222.09;5056179;28;45661;-81
2022/05/24 10:31:54;;;;;;;;;0.00;0.00;;;;;16.81;50.79;100225.41;4994136;28;46456;-80
2022/05/24 10:40:52;;;;;;;;;0.25;0.00;;;;;16.94;50.31;100222.34;4993670;28;46203;-81
2022/05/24 10:43:38;;;;;;;;;1.00;0.00;;;;;17.01;50.04;100221.53;4994165;28;45890;-82
2022/05/24 10:46:12;;;;;;;;;1.00;1.00;;;;;17.02;50.16;100217.91;4993981;28;45653;-80
2022/05/24 10:48:50;;;;;;;;;1.00;0.00;;;;;17.14;50.02;100226.38;4993587;28;45655;-80
2022/05/24 10:55:18;;;;;;;;;0.25;0.25;;;;;17.27;49.29;100223.28;4993367;28;45860;-78
2022/05/24 10:58:00;;;;;;;;;1.50;0.00;;;;;17.25;49.18;100226.09;4934687;28;45724;-78
2022/05/24 11:00:34;;;;;;;;;0.75;0.00;;;;;17.22;49.25;100225.59;4935175;28;45627;-79
2022/05/24 11:03:02;;;;;;;;;0.75;0.75;;;;;17.27;49.25;100221.47;4935345;28;46907;-78
2022/05/24 11:05:35;;;;;;;;;1.00;1.00;;;;;17.18;49.17;100215.31;4935313;28;45994;-80
2022/05/24 11:08:04;;;;;;;;;0.00;0.00;;;;;17.23;48.59;100235.16;4948124;28;45711;-78
2022/05/24 11:10:36;;;;;;;;;0.00;0.00;;;;;17.20;48.55;100245.09;4993963;28;45857;-80
2022/05/24 11:13:09;;;;;;;;;1.25;1.25;;;;;17.10;48.78;100220.59;4993251;28;45645;-80
2022/05/24 11:16:07;;;;;;;;;1.00;1.00;;;;;17.14;48.89;100216.63;4993400;28;45886;-80
2022/05/24 11:18:33;;;;;;;;;1.00;0.00;;;;;17.12;48.68;100210.66;4993318;28;45616;-78
2022/05/24 11:21:23;;;;;;;;;2.00;1.00;;;;;17.23;49.09;100214.81;4993326;28;45834;-77
2022/05/24 11:23:57;;;;;;;;;0.00;0.00;;;;;17.23;48.88;100219.28;4993472;28;45668;-77
2022/05/24 11:26:28;;;;;;;;;1.00;0.00;;;;;17.27;48.44;100224.13;4992848;28;46516;-77
2022/05/24 11:28:59;;;;;;;;;0.00;0.00;;;;;17.30;48.51;100231.72;4992840;28;45804;-78
2022/05/24 11:31:45;;;;;;;;;0.00;0.00;;;;;17.30;48.11;100226.44;4993207;28;45698;-78
2022/05/24 11:37:19;;;;;;;;;0.00;0.00;;;;;17.37;47.79;100226.63;5053538;28;46112;-78
2022/05/24 11:39:46;;;;;;;;;0.00;0.00;;;;;17.35;48.04;100215.34;5054695;28;45581;-77
2022/05/24 11:42:34;;;;;;;;;0.00;0.00;;;;;17.40;47.87;100227.09;5055269;28;45779;-78
2022/05/24 11:45:19;;;;;;;;;1.00;1.00;;;;;17.43;48.12;100220.69;5054847;28;45548;-77
2022/05/24 11:47:48;;;;;;;;;0.00;0.00;;;;;17.53;48.13;100216.88;5036280;28;47510;-77
2022/05/24 11:53:39;;;;;;;;;1.00;1.00;;;;;17.71;48.16;100206.16;5054750;28;45531;-78
2022/05/24 11:56:10;;;;;;;;;0.50;0.50;;;;;17.80;46.93;100214.94;5054941;28;46625;-75
2022/05/24 11:58:36;;;;;;;;;1.00;1.00;;;;;17.84;46.81;100210.97;5054691;28;45910;-79
2022/05/24 12:01:16;;;;;;;;;0.75;0.00;;;;;17.88;46.68;100226.38;5055004;28;45578;-79
2022/05/24 12:10:11;;;;;;;;;0.00;0.00;;;;;17.97;45.51;100229.88;5054382;28;45882;-77
2022/05/24 12:12:50;;;;;;;;;1.00;1.00;;;;;17.93;46.78;100205.50;5054604;28;45735;-79
2022/05/24 12:15:25;;;;;;;;;0.50;0.00;;;;;18.03;46.82;100224.72;5036456;28;45936;-78
2022/05/24 12:17:57;;;;;;;;;1.00;1.00;;;;;18.06;46.73;100225.38;5036264;28;46727;-82
2022/05/24 12:20:34;;;;;;;;;0.00;0.00;;;;;18.03;47.57;100234.47;5055003;28;46487;-77
2022/05/24 12:23:06;;;;;;;;;0.00;0.00;;;;;18.01;47.31;100234.66;5037021;28;46075;-82
2022/05/24 12:25:55;;;;;;;;;1.75;0.50;;;;;18.04;47.47;100238.78;5054541;28;45620;-80
2022/05/24 12:28:35;;;;;;;;;1.75;1.00;;;;;18.08;47.73;100231.34;5054001;28;45603;-77
2022/05/24 12:31:07;;;;;;;;;0.50;0.00;;;;;18.12;47.41;100224.72;5054223;28;46435;-79
2022/05/24 12:33:50;;;;;;;;;1.00;0.00;;;;;18.18;46.98;100229.34;5054293;28;45725;-79
2022/05/24 12:36:39;;;;;;;;;0.75;0.75;;;;;18.14;47.17;100215.59;5054256;28;45776;-79
2022/05/24 12:39:08;;;;;;;;;0.00;0.00;;;;;18.30;46.36;100231.47;5054227;28;46578;-78
2022/05/24 12:41:39;;;;;;;;;1.00;0.00;;;;;18.34;45.67;100218.72;5054321;28;46506;-79
2022/05/24 12:44:11;;;;;;;;;0.25;0.25;;;;;18.42;45.08;100216.88;5054316;28;45669;-79
2022/05/24 12:46:37;;;;;;;;;0.00;0.00;;;;;18.45;45.74;100219.22;5054350;28;45758;-78
2022/05/24 12:49:15;;;;;;;;;2.00;1.00;;;;;18.58;45.56;100225.81;5038178;28;46254;-78
2022/05/24 12:51:41;;;;;;;;;0.00;0.00;;;;;18.66;45.44;100217.84;5061091;28;45648;-80
2022/05/24 12:54:25;;;;;;;;;1.00;1.00;;;;;18.75;45.95;100214.16;5061500;28;45682;-81
2022/05/24 12:57:04;;;;;;;;;1.00;0.00;;;;;18.81;45.16;100214.31;5061321;28;45653;-78
2022/05/24 12:59:41;;;;;;;;;0.75;0.75;;;;;18.92;44.58;100207.81;5060900;28;45604;-81
2022/05/24 13:02:39;;;;;;;;;1.00;0.00;;;;;19.01;44.66;100214.72;5042983;28;46283;-76
2022/05/24 13:08:27;;;;;;;;;0.00;0.00;;;;;19.09;43.17;100209.38;5060888;28;45568;-81
2022/05/24 13:10:52;;;;;;;;;1.00;0.00;;;;;19.11;42.94;100203.91;5060512;28;45600;-78
2022/05/24 13:13:22;;;;;;;;;0.00;0.00;;;;;19.13;43.36;100202.72;5060498;28;45642;-81
2022/05/24 13:15:53;;;;;;;;;1.00;0.00;;;;;19.15;43.38;100208.69;5060580;28;45649;-82